createdAt,value
2023-03-08T00:01:52.380Z,99.97
2023-03-08T00:03:56.878Z,99.60
2023-03-08T00:05:58.399Z,100.00
2023-03-08T00:07:59.934Z,100.00
2023-03-08T00:10:01.436Z,100.00
2023-03-08T00:12:03.002Z,100.00
2023-03-08T00:14:04.522Z,100.00
2023-03-08T00:16:08.560Z,100.00
2023-03-08T00:18:10.061Z,100.00
2023-03-08T00:20:13.104Z,100.00
2023-03-08T00:22:14.571Z,100.00
2023-03-08T00:24:16.829Z,100.00
2023-03-08T00:26:18.310Z,100.00
2023-03-08T00:28:19.804Z,100.00
2023-03-08T00:30:21.507Z,100.00
2023-03-08T00:32:25.634Z,100.00
2023-03-08T00:34:27.124Z,100.00
2023-03-08T00:36:29.237Z,100.00
2023-03-08T00:38:32.748Z,100.00
2023-03-08T00:40:34.201Z,100.00
2023-03-08T00:42:35.658Z,100.00
2023-03-08T00:44:37.136Z,100.00
2023-03-08T00:46:38.639Z,100.00
2023-03-08T00:48:40.797Z,100.00
2023-03-08T00:50:42.514Z,100.00
2023-03-08T00:52:44.024Z,100.00
2023-03-08T00:54:45.506Z,100.00
2023-03-08T00:56:46.976Z,100.00
2023-03-08T00:58:48.445Z,100.00
2023-03-08T01:00:50.400Z,100.00
2023-03-08T01:02:51.922Z,100.00
2023-03-08T01:04:53.493Z,100.00
2023-03-08T01:06:54.951Z,100.00
2023-03-08T01:08:56.427Z,100.00
2023-03-08T01:10:59.718Z,100.00
2023-03-08T01:13:01.340Z,100.00
2023-03-08T01:15:04.522Z,100.00
2023-03-08T01:17:06.023Z,100.00
2023-03-08T01:19:07.572Z,100.00
2023-03-08T01:21:10.564Z,100.00
2023-03-08T01:23:12.061Z,100.00
2023-03-08T01:25:13.552Z,100.00
2023-03-08T01:27:16.208Z,100.00
2023-03-08T01:29:17.697Z,100.00
2023-03-08T01:31:22.042Z,100.00
2023-03-08T01:33:25.089Z,100.00
2023-03-08T01:35:26.572Z,100.00
2023-03-08T01:37:28.023Z,100.00
2023-03-08T01:39:29.533Z,100.00
2023-03-08T01:41:31.858Z,100.00
2023-03-08T01:43:36.302Z,100.00
2023-03-08T01:46:07.263Z,100.00
2023-03-08T01:48:08.844Z,100.00
2023-03-08T01:50:13.095Z,100.00
2023-03-08T01:52:19.313Z,100.00
2023-03-08T01:54:31.389Z,100.00
2023-03-08T01:56:34.433Z,100.00
2023-03-08T01:58:36.172Z,100.00
2023-03-08T02:00:38.843Z,100.00
2023-03-08T02:02:43.717Z,100.00
2023-03-08T02:04:45.451Z,100.00
2023-03-08T02:06:46.927Z,100.00
2023-03-08T02:08:48.575Z,100.00
2023-03-08T02:10:50.694Z,100.00
2023-03-08T02:12:52.240Z,100.00
2023-03-08T02:14:55.107Z,100.00
2023-03-08T02:16:56.796Z,100.00
2023-03-08T02:19:04.872Z,100.00
2023-03-08T02:21:06.325Z,100.00
2023-03-08T02:23:12.252Z,100.00
2023-03-08T02:25:18.849Z,100.00
2023-03-08T02:27:27.026Z,100.00
2023-03-08T02:29:28.546Z,100.00
2023-03-08T02:31:30.024Z,100.00
2023-03-08T02:33:32.386Z,100.00
2023-03-08T02:35:35.868Z,100.00
2023-03-08T02:37:37.345Z,100.00
2023-03-08T02:39:38.806Z,100.00
2023-03-08T02:41:40.737Z,100.00
2023-03-08T02:43:42.457Z,100.00
2023-03-08T02:45:44.502Z,100.00
2023-03-08T02:47:45.954Z,100.00
2023-03-08T02:49:47.388Z,100.00
2023-03-08T02:51:48.843Z,100.00
2023-03-08T02:53:50.338Z,100.00
2023-03-08T02:55:51.847Z,100.00
2023-03-08T02:57:53.331Z,100.00
2023-03-08T02:59:54.820Z,100.00
2023-03-08T03:01:57.321Z,100.00
2023-03-08T03:03:58.801Z,100.00
2023-03-08T03:06:00.329Z,100.00
2023-03-08T03:08:01.865Z,100.00
2023-03-08T03:10:04.761Z,100.00
2023-03-08T03:12:06.534Z,100.00
2023-03-08T03:14:08.255Z,100.00
2023-03-08T03:16:12.287Z,100.00
2023-03-08T03:18:13.886Z,100.00
2023-03-08T03:20:15.809Z,100.00
2023-03-08T03:22:17.272Z,100.00
2023-03-08T03:24:18.759Z,100.00
2023-03-08T03:26:22.324Z,100.00
2023-03-08T03:28:23.799Z,100.00
2023-03-08T03:30:25.244Z,100.00
2023-03-08T03:32:27.076Z,100.00
2023-03-08T03:34:29.796Z,100.00
2023-03-08T03:36:31.345Z,100.00
2023-03-08T03:38:32.816Z,100.00
2023-03-08T03:40:34.270Z,100.00
2023-03-08T03:42:35.714Z,100.00
2023-03-08T03:44:37.280Z,100.00
2023-03-08T03:46:38.840Z,100.00
2023-03-08T03:48:40.846Z,100.00
2023-03-08T03:50:42.320Z,100.00
2023-03-08T03:52:43.804Z,100.00
2023-03-08T03:54:45.232Z,100.00
2023-03-08T03:56:46.757Z,100.00
2023-03-08T03:58:48.752Z,100.00
2023-03-08T04:00:50.196Z,100.00
2023-03-08T04:02:52.116Z,100.00
2023-03-08T04:04:53.602Z,100.00
2023-03-08T04:06:55.061Z,100.00
2023-03-08T04:09:04.910Z,100.00
2023-03-08T04:11:06.410Z,100.00
2023-03-08T04:13:07.916Z,100.00
2023-03-08T04:15:09.600Z,100.00
2023-03-08T04:17:11.055Z,100.00
2023-03-08T04:19:13.772Z,100.00
2023-03-08T04:21:15.451Z,100.00
2023-03-08T04:23:16.941Z,100.00
2023-03-08T04:25:18.955Z,100.00
2023-03-08T04:27:20.455Z,100.00
2023-03-08T04:29:21.910Z,100.00
2023-03-08T04:31:29.144Z,100.00
2023-03-08T04:33:30.668Z,100.00
2023-03-08T04:35:32.125Z,100.00
2023-03-08T04:37:33.824Z,100.00
2023-03-08T04:39:35.508Z,100.00
2023-03-08T04:41:37.029Z,100.00
2023-03-08T04:43:45.359Z,100.00
2023-03-08T04:45:47.228Z,100.00
2023-03-08T04:47:48.674Z,100.00
2023-03-08T04:49:50.122Z,100.00
2023-03-08T04:51:51.582Z,100.00
2023-03-08T04:53:53.046Z,100.00
2023-03-08T04:55:54.934Z,100.00
2023-03-08T04:57:56.428Z,100.00
2023-03-08T04:59:57.930Z,100.00
2023-03-08T05:01:59.422Z,100.00
2023-03-08T05:04:00.947Z,100.00
2023-03-08T05:06:02.460Z,100.00
2023-03-08T05:08:05.202Z,100.00
2023-03-08T05:10:06.959Z,100.00
2023-03-08T05:12:08.791Z,100.00
2023-03-08T05:14:10.329Z,100.00
2023-03-08T05:16:12.137Z,100.00
2023-03-08T05:18:13.671Z,100.00
2023-03-08T05:20:15.247Z,100.00
2023-03-08T05:22:16.733Z,100.00
2023-03-08T05:24:18.326Z,100.00
2023-03-08T05:26:19.878Z,100.00
2023-03-08T05:28:23.544Z,100.00
2023-03-08T05:30:25.124Z,100.00
2023-03-08T05:32:26.854Z,100.00
2023-03-08T05:34:29.133Z,100.00
2023-03-08T05:36:30.618Z,100.00
2023-03-08T05:38:32.318Z,100.00
2023-03-08T05:40:33.809Z,100.00
2023-03-08T05:42:35.398Z,100.00
2023-03-08T05:44:37.678Z,100.00
2023-03-08T05:46:39.267Z,100.00
2023-03-08T05:48:40.845Z,100.00
2023-03-08T05:50:42.302Z,100.00
2023-03-08T05:52:43.776Z,100.00
2023-03-08T05:54:45.246Z,100.00
2023-03-08T05:56:46.780Z,100.00
2023-03-08T05:58:48.569Z,100.00
2023-03-08T06:00:50.080Z,100.00
2023-03-08T06:02:51.630Z,100.00
2023-03-08T06:04:53.138Z,100.00
2023-03-08T06:06:54.659Z,100.00
2023-03-08T06:08:56.420Z,100.00
2023-03-08T06:10:57.924Z,100.00
2023-03-08T06:12:59.376Z,100.00
2023-03-08T06:15:00.906Z,100.00
2023-03-08T06:17:02.445Z,100.00
2023-03-08T06:19:04.214Z,100.00
2023-03-08T06:21:08.512Z,100.00
2023-03-08T06:23:09.969Z,100.00
2023-03-08T06:25:11.462Z,100.00
2023-03-08T06:27:12.909Z,100.00
2023-03-08T06:29:14.386Z,100.00
2023-03-08T06:31:19.483Z,100.00
2023-03-08T06:33:23.622Z,100.00
2023-03-08T06:35:25.922Z,100.00
2023-03-08T06:37:27.410Z,100.00
2023-03-08T06:39:30.972Z,100.00
2023-03-08T06:41:32.853Z,100.00
2023-03-08T06:43:35.687Z,100.00
2023-03-08T06:45:40.945Z,100.00
2023-03-08T06:47:42.459Z,100.00
2023-03-08T06:49:44.686Z,100.00
2023-03-08T06:51:47.533Z,100.00
2023-03-08T06:53:49.000Z,100.00
2023-03-08T06:55:50.486Z,100.00
2023-03-08T06:57:52.052Z,100.00
2023-03-08T06:59:53.540Z,100.00
2023-03-08T07:01:54.992Z,100.00
2023-03-08T07:03:57.104Z,100.00
2023-03-08T07:06:00.477Z,100.00
2023-03-08T07:08:02.022Z,100.00
2023-03-08T07:10:04.384Z,100.00
2023-03-08T07:12:08.127Z,100.00
2023-03-08T07:14:09.793Z,100.00
2023-03-08T07:16:13.510Z,100.00
2023-03-08T07:18:16.079Z,100.00
2023-03-08T07:20:20.217Z,100.00
2023-03-08T07:22:21.779Z,100.00
2023-03-08T07:24:23.341Z,100.00
2023-03-08T07:26:24.801Z,100.00
2023-03-08T07:28:26.331Z,100.00
2023-03-08T07:30:27.857Z,100.00
2023-03-08T07:32:29.466Z,100.00
2023-03-08T07:34:31.082Z,100.00
2023-03-08T07:36:33.257Z,100.00
2023-03-08T07:38:34.753Z,100.00
2023-03-08T07:40:36.227Z,100.00
2023-03-08T07:42:37.728Z,100.00
2023-03-08T07:44:39.211Z,100.00
2023-03-08T07:46:40.687Z,100.00
2023-03-08T07:48:42.253Z,100.00
2023-03-08T07:50:43.825Z,100.00
2023-03-08T07:52:45.338Z,100.00
2023-03-08T07:54:46.858Z,100.00
2023-03-08T07:56:48.294Z,100.00
2023-03-08T07:58:49.878Z,100.00
2023-03-08T08:00:51.450Z,100.00
2023-03-08T08:02:54.120Z,100.00
2023-03-08T08:04:55.717Z,100.00
2023-03-08T08:06:59.250Z,100.00
2023-03-08T08:09:00.716Z,100.00
2023-03-08T08:11:09.473Z,100.00
2023-03-08T08:13:11.364Z,100.00
2023-03-08T08:15:13.001Z,100.00
2023-03-08T08:17:14.457Z,100.00
2023-03-08T08:19:17.135Z,100.00
2023-03-08T08:21:19.082Z,100.00
2023-03-08T08:23:20.522Z,100.00
2023-03-08T08:25:22.240Z,100.00
2023-03-08T08:27:23.690Z,100.00
2023-03-08T08:29:25.264Z,100.00
2023-03-08T08:31:31.232Z,100.00
2023-03-08T08:33:33.394Z,99.36
2023-03-08T08:35:43.098Z,99.29
2023-03-08T08:37:45.006Z,98.41
2023-03-08T08:39:46.446Z,98.09
2023-03-08T08:41:49.683Z,98.28
2023-03-08T08:43:51.211Z,97.97
2023-03-08T08:45:55.784Z,98.40
2023-03-08T08:47:57.269Z,97.59
2023-03-08T08:49:58.781Z,97.98
2023-03-08T08:52:00.240Z,97.00
2023-03-08T08:54:01.810Z,96.87
2023-03-08T08:56:28.365Z,95.94
2023-03-08T08:58:30.158Z,95.76
2023-03-08T09:00:33.533Z,95.39
2023-03-08T09:02:35.115Z,94.68
2023-03-08T09:04:36.758Z,94.94
2023-03-08T09:06:38.468Z,94.96
2023-03-08T09:08:40.288Z,95.01
2023-03-08T09:10:42.278Z,93.78
2023-03-08T09:12:43.810Z,93.41
2023-03-08T09:14:45.326Z,93.72
2023-03-08T09:16:46.987Z,93.67
2023-03-08T09:18:48.885Z,93.58
2023-03-08T09:20:50.472Z,93.31
2023-03-08T09:22:52.036Z,92.12
2023-03-08T09:24:53.583Z,91.86
2023-03-08T09:26:55.116Z,91.62
2023-03-08T09:28:58.733Z,91.56
2023-03-08T09:31:00.562Z,91.26
2023-03-08T09:33:02.533Z,91.50
2023-03-08T09:35:05.255Z,91.36
2023-03-08T09:37:08.242Z,91.71
2023-03-08T09:39:13.108Z,91.28
2023-03-08T09:41:25.743Z,91.57
2023-03-08T09:43:44.585Z,90.93
2023-03-08T09:45:46.276Z,90.72
2023-03-08T09:47:54.114Z,90.19
2023-03-08T09:50:04.408Z,88.62
2023-03-08T09:52:22.432Z,87.68
2023-03-08T09:54:25.142Z,86.85
2023-03-08T09:56:38.399Z,87.06
2023-03-08T09:59:25.278Z,86.94
2023-03-08T10:01:35.667Z,86.29
2023-03-08T10:03:52.422Z,84.82
2023-03-08T10:05:59.109Z,83.70
2023-03-08T10:08:13.633Z,83.09
2023-03-08T10:10:18.142Z,82.91
2023-03-08T10:12:52.365Z,83.50
2023-03-08T10:15:01.494Z,82.54
2023-03-08T10:17:12.119Z,81.60
2023-03-08T10:19:27.502Z,80.47
2023-03-08T10:21:32.814Z,81.18
2023-03-08T10:23:36.532Z,81.49
2023-03-08T10:25:39.040Z,81.95
2023-03-08T10:27:40.596Z,81.48
2023-03-08T10:29:49.054Z,80.90
2023-03-08T10:31:50.529Z,81.35
2023-03-08T10:34:11.233Z,81.14
2023-03-08T10:36:24.126Z,79.76
2023-03-08T10:38:30.593Z,81.00
2023-03-08T10:40:32.181Z,82.02
2023-03-08T10:42:35.432Z,81.89
2023-03-08T10:44:55.850Z,81.46
2023-03-08T10:46:57.540Z,81.39
2023-03-08T10:49:14.668Z,81.34
2023-03-08T10:51:23.047Z,82.01
2023-03-08T10:53:24.568Z,81.86
2023-03-08T10:55:30.151Z,81.19
2023-03-08T10:57:32.831Z,81.07
2023-03-08T10:59:36.464Z,80.69
2023-03-08T11:01:52.448Z,80.09
2023-03-08T11:04:00.200Z,80.45
2023-03-08T11:06:23.322Z,80.42
2023-03-08T11:08:36.737Z,79.44
2023-03-08T11:10:38.254Z,79.73
2023-03-08T11:12:40.320Z,79.76
2023-03-08T11:14:41.902Z,79.73
2023-03-08T11:17:04.612Z,80.17
2023-03-08T11:19:32.842Z,80.23
2023-03-08T11:22:02.314Z,78.97
2023-03-08T11:24:09.484Z,79.36
2023-03-08T11:26:22.570Z,79.96
2023-03-08T11:28:35.608Z,78.24
2023-03-08T11:31:15.083Z,78.69
2023-03-08T11:33:46.064Z,79.15
2023-03-08T11:36:13.249Z,77.27
2023-03-08T11:38:17.511Z,77.08
2023-03-08T11:40:25.155Z,77.67
2023-03-08T11:42:59.130Z,77.16
2023-03-08T11:45:19.329Z,77.88
2023-03-08T11:47:51.508Z,78.19
2023-03-08T11:50:10.940Z,75.80
2023-03-08T11:52:28.653Z,76.28
2023-03-08T11:54:51.839Z,77.62
2023-03-08T11:57:04.118Z,80.05
2023-03-08T11:59:33.884Z,79.64
2023-03-08T12:02:02.691Z,77.90
2023-03-08T12:04:11.559Z,78.00
2023-03-08T12:06:28.266Z,77.09
2023-03-08T12:08:44.031Z,76.39
2023-03-08T12:10:56.491Z,76.98
2023-03-08T12:13:04.945Z,77.50
2023-03-08T12:15:41.219Z,76.99
2023-03-08T12:17:50.418Z,77.45
2023-03-08T12:19:52.199Z,76.17
2023-03-08T12:22:08.942Z,74.75
2023-03-08T12:24:44.218Z,74.38
2023-03-08T12:26:51.377Z,74.63
2023-03-08T12:29:02.183Z,74.85
2023-03-08T12:31:11.015Z,75.15
2023-03-08T12:33:20.269Z,73.66
2023-03-08T12:35:27.505Z,73.44
2023-03-08T12:37:30.367Z,73.48
2023-03-08T12:39:36.719Z,72.74
2023-03-08T12:41:38.579Z,69.70
2023-03-08T12:43:40.573Z,70.78
2023-03-08T12:45:45.160Z,70.77
2023-03-08T12:48:06.867Z,72.29
2023-03-08T12:50:18.361Z,73.78
2023-03-08T12:52:19.911Z,73.11
2023-03-08T12:54:23.702Z,72.78
2023-03-08T12:56:31.235Z,71.09
2023-03-08T12:58:34.875Z,72.00
2023-03-08T13:00:38.378Z,72.32
2023-03-08T13:02:39.861Z,72.74
2023-03-08T13:04:42.715Z,72.85
2023-03-08T13:07:00.533Z,72.81
2023-03-08T13:09:16.292Z,71.88
2023-03-08T13:11:18.119Z,74.71
2023-03-08T13:13:39.560Z,76.33
2023-03-08T13:15:41.217Z,78.53
2023-03-08T13:17:50.559Z,77.83
2023-03-08T13:19:52.334Z,76.69
2023-03-08T13:22:03.578Z,77.06
2023-03-08T13:24:17.891Z,77.99
2023-03-08T13:26:57.542Z,76.44
2023-03-08T13:28:59.254Z,77.30
2023-03-08T13:31:25.034Z,74.86
2023-03-08T13:33:33.370Z,73.64
2023-03-08T13:35:35.055Z,73.42
2023-03-08T13:37:36.641Z,76.72
2023-03-08T13:39:38.145Z,78.29
2023-03-08T13:41:41.749Z,78.50
2023-03-08T13:43:43.209Z,77.16
2023-03-08T13:45:48.969Z,76.26
2023-03-08T13:47:51.599Z,74.76
2023-03-08T13:49:55.672Z,73.32
2023-03-08T13:52:02.305Z,74.24
2023-03-08T13:54:04.043Z,73.75
2023-03-08T13:56:06.577Z,73.79
2023-03-08T13:58:24.573Z,76.49
2023-03-08T14:00:26.267Z,78.46
2023-03-08T14:02:30.653Z,78.89
2023-03-08T14:04:34.838Z,79.53
2023-03-08T14:06:38.106Z,78.84
2023-03-08T14:08:39.633Z,79.90
2023-03-08T14:10:45.384Z,76.90
2023-03-08T14:12:46.905Z,77.54
2023-03-08T14:14:55.382Z,76.78
2023-03-08T14:16:57.690Z,76.11
2023-03-08T14:19:08.332Z,77.05
2023-03-08T14:21:39.096Z,78.74
2023-03-08T14:23:43.212Z,79.42
2023-03-08T14:25:44.716Z,80.06
2023-03-08T14:27:46.236Z,79.40
2023-03-08T14:29:48.332Z,78.31
2023-03-08T14:31:52.722Z,77.15
2023-03-08T14:34:05.206Z,76.50
2023-03-08T14:36:09.722Z,71.51
2023-03-08T14:38:23.439Z,74.01
2023-03-08T14:40:26.599Z,77.67
2023-03-08T14:42:55.730Z,77.27
2023-03-08T14:45:05.603Z,76.52
2023-03-08T14:47:21.518Z,75.74
2023-03-08T14:49:23.860Z,77.31
2023-03-08T14:51:41.059Z,77.15
2023-03-08T14:53:43.034Z,77.09
2023-03-08T14:55:44.730Z,76.35
2023-03-08T14:57:46.292Z,75.28
2023-03-08T14:59:48.882Z,73.14
2023-03-08T15:01:50.468Z,70.74
2023-03-08T15:03:52.051Z,74.18
2023-03-08T15:05:55.427Z,76.41
2023-03-08T15:08:00.441Z,71.41
2023-03-08T15:10:04.460Z,71.84
2023-03-08T15:12:09.285Z,71.98
2023-03-08T15:14:14.278Z,74.06
2023-03-08T15:16:15.847Z,73.47
2023-03-08T15:18:17.422Z,73.32
2023-03-08T15:20:19.546Z,74.21
2023-03-08T15:22:21.372Z,73.72
2023-03-08T15:24:23.188Z,75.08
2023-03-08T15:26:28.745Z,73.70
2023-03-08T15:28:30.208Z,72.10
2023-03-08T15:30:33.003Z,73.06
2023-03-08T15:32:34.844Z,74.28
2023-03-08T15:34:36.398Z,74.96
2023-03-08T15:36:37.960Z,75.67
2023-03-08T15:38:39.419Z,75.71
2023-03-08T15:40:41.857Z,74.39
2023-03-08T15:42:43.591Z,75.31
2023-03-08T15:44:45.043Z,75.65
2023-03-08T15:46:46.651Z,76.34
2023-03-08T15:48:50.995Z,76.47
2023-03-08T15:50:52.542Z,76.97
2023-03-08T15:52:54.593Z,77.57
2023-03-08T15:54:56.110Z,77.63
2023-03-08T15:56:58.450Z,78.64
2023-03-08T15:59:00.123Z,78.81
2023-03-08T16:01:01.625Z,79.73
2023-03-08T16:03:03.161Z,80.68
2023-03-08T16:05:09.486Z,80.14
2023-03-08T16:07:16.433Z,79.27
2023-03-08T16:09:17.902Z,79.55
2023-03-08T16:11:23.034Z,79.36
2023-03-08T16:13:24.583Z,77.33
2023-03-08T16:15:26.255Z,77.71
2023-03-08T16:17:30.541Z,77.83
2023-03-08T16:19:33.815Z,78.32
2023-03-08T16:21:35.279Z,79.38
2023-03-08T16:23:38.960Z,79.25
2023-03-08T16:25:43.193Z,77.96
2023-03-08T16:27:44.870Z,78.55
2023-03-08T16:29:50.963Z,78.97
2023-03-08T16:31:52.963Z,78.99
2023-03-08T16:33:54.422Z,79.09
2023-03-08T16:35:56.020Z,78.62
2023-03-08T16:37:57.596Z,80.04
2023-03-08T16:40:02.047Z,80.53
2023-03-08T16:42:03.687Z,80.48
2023-03-08T16:44:07.026Z,80.55
2023-03-08T16:46:14.163Z,81.10
2023-03-08T16:48:15.621Z,80.74
2023-03-08T16:50:17.325Z,81.29
2023-03-08T16:52:19.293Z,81.38
2023-03-08T16:54:20.839Z,81.39
2023-03-08T16:56:25.228Z,81.40
2023-03-08T16:58:26.694Z,81.48
2023-03-08T17:00:28.183Z,81.77
2023-03-08T17:02:29.729Z,81.42
2023-03-08T17:04:31.234Z,81.60
2023-03-08T17:06:33.235Z,82.38
2023-03-08T17:08:34.870Z,82.03
2023-03-08T17:10:40.674Z,82.28
2023-03-08T17:12:42.189Z,82.98
2023-03-08T17:14:44.618Z,82.64
2023-03-08T17:16:46.140Z,82.71
2023-03-08T17:18:49.239Z,82.55
2023-03-08T17:20:52.213Z,82.71
2023-03-08T17:22:53.665Z,82.99
2023-03-08T17:24:55.205Z,82.96
2023-03-08T17:26:56.734Z,83.42
2023-03-08T17:28:58.197Z,83.46
2023-03-08T17:30:59.717Z,82.93
2023-03-08T17:33:01.188Z,83.38
2023-03-08T17:35:02.681Z,83.12
2023-03-08T17:37:04.496Z,83.40
2023-03-08T17:39:06.131Z,83.36
2023-03-08T17:41:10.967Z,83.52
2023-03-08T17:43:12.425Z,83.30
2023-03-08T17:45:15.952Z,83.63
2023-03-08T17:47:17.420Z,83.86
2023-03-08T17:49:23.296Z,83.77
2023-03-08T17:51:27.900Z,83.87
2023-03-08T17:53:29.735Z,83.60
2023-03-08T17:55:31.233Z,83.46
2023-03-08T17:57:32.694Z,83.39
2023-03-08T17:59:34.160Z,82.62
2023-03-08T18:01:35.650Z,83.27
2023-03-08T18:03:37.745Z,82.96
2023-03-08T18:05:48.690Z,81.63
2023-03-08T18:07:50.202Z,82.14
2023-03-08T18:09:51.726Z,82.72
2023-03-08T18:11:53.180Z,83.19
2023-03-08T18:13:55.145Z,82.85
2023-03-08T18:15:56.826Z,83.01
2023-03-08T18:17:58.435Z,83.26
2023-03-08T18:20:01.047Z,82.88
2023-03-08T18:22:04.463Z,83.15
2023-03-08T18:24:06.254Z,83.58
2023-03-08T18:26:07.703Z,84.01
2023-03-08T18:28:09.404Z,84.32
2023-03-08T18:30:11.923Z,84.53
2023-03-08T18:32:13.417Z,84.62
2023-03-08T18:34:15.417Z,84.73
2023-03-08T18:36:18.049Z,84.99
2023-03-08T18:38:19.518Z,84.89
2023-03-08T18:40:21.071Z,85.26
2023-03-08T18:42:22.592Z,85.44
2023-03-08T18:44:24.712Z,85.90
2023-03-08T18:46:28.889Z,85.71
2023-03-08T18:48:30.537Z,85.78
2023-03-08T18:50:32.525Z,86.26
2023-03-08T18:52:34.184Z,86.46
2023-03-08T18:54:35.902Z,86.50
2023-03-08T18:56:37.466Z,86.72
2023-03-08T18:58:38.964Z,86.96
2023-03-08T19:00:40.489Z,87.26
2023-03-08T19:02:42.026Z,87.34
2023-03-08T19:04:43.535Z,87.41
2023-03-08T19:06:45.141Z,87.50
2023-03-08T19:08:46.641Z,87.56
2023-03-08T19:10:48.200Z,87.83
2023-03-08T19:12:49.723Z,88.06
2023-03-08T19:14:52.924Z,87.56
2023-03-08T19:16:54.738Z,88.13
2023-03-08T19:18:59.040Z,87.70
2023-03-08T19:21:00.563Z,87.92
2023-03-08T19:23:02.072Z,87.97
2023-03-08T19:25:05.871Z,88.15
2023-03-08T19:27:07.457Z,87.88
2023-03-08T19:29:23.775Z,88.44
2023-03-08T19:31:25.305Z,88.45
2023-03-08T19:33:31.596Z,88.44
2023-03-08T19:35:34.332Z,88.13
2023-03-08T19:37:35.954Z,87.79
2023-03-08T19:39:38.377Z,88.34
2023-03-08T19:41:40.391Z,88.23
2023-03-08T19:43:42.719Z,88.36
2023-03-08T19:45:50.496Z,88.10
2023-03-08T19:47:52.616Z,88.02
2023-03-08T19:49:54.097Z,88.24
2023-03-08T19:51:57.336Z,88.61
2023-03-08T19:53:58.910Z,88.11
2023-03-08T19:56:00.393Z,88.22
2023-03-08T19:58:01.842Z,88.13
2023-03-08T20:00:06.174Z,88.04
2023-03-08T20:02:08.913Z,88.34
2023-03-08T20:04:11.497Z,88.29
2023-03-08T20:06:20.466Z,88.25
2023-03-08T20:08:21.989Z,88.21
2023-03-08T20:10:23.534Z,88.22
2023-03-08T20:12:25.006Z,88.11
2023-03-08T20:14:27.197Z,88.13
2023-03-08T20:16:29.686Z,88.04
2023-03-08T20:18:31.377Z,87.88
2023-03-08T20:20:33.153Z,87.89
2023-03-08T20:22:34.686Z,88.01
2023-03-08T20:24:36.222Z,87.98
2023-03-08T20:26:38.006Z,88.09
2023-03-08T20:28:39.772Z,87.96
2023-03-08T20:30:41.420Z,87.90
2023-03-08T20:32:43.195Z,87.95
2023-03-08T20:34:44.697Z,88.06
2023-03-08T20:36:47.409Z,87.56
2023-03-08T20:38:49.232Z,87.58
2023-03-08T20:41:01.939Z,87.95
2023-03-08T20:43:03.420Z,87.75
2023-03-08T20:45:05.717Z,87.79
2023-03-08T20:47:07.432Z,87.73
2023-03-08T20:49:11.134Z,88.16
2023-03-08T20:51:17.606Z,88.24
2023-03-08T20:53:19.075Z,87.51
2023-03-08T20:55:20.905Z,87.68
2023-03-08T20:57:22.932Z,87.58
2023-03-08T20:59:26.914Z,87.75
2023-03-08T21:01:31.416Z,87.75
2023-03-08T21:03:32.938Z,88.03
2023-03-08T21:05:35.934Z,87.82
2023-03-08T21:07:37.420Z,87.92
2023-03-08T21:09:38.892Z,87.66
2023-03-08T21:11:40.743Z,87.62
2023-03-08T21:13:42.956Z,87.91
2023-03-08T21:15:44.572Z,87.75
2023-03-08T21:17:46.068Z,87.72
2023-03-08T21:19:50.944Z,87.81
2023-03-08T21:21:52.583Z,88.24
2023-03-08T21:23:59.489Z,87.57
2023-03-08T21:26:01.297Z,87.95
2023-03-08T21:28:02.875Z,87.85
2023-03-08T21:30:06.122Z,87.77
2023-03-08T21:32:07.656Z,87.67
2023-03-08T21:34:09.327Z,87.94
2023-03-08T21:36:11.156Z,87.39
2023-03-08T21:38:12.654Z,87.34
2023-03-08T21:40:14.538Z,87.80
2023-03-08T21:42:16.018Z,87.89
2023-03-08T21:44:19.789Z,87.86
2023-03-08T21:46:21.423Z,87.50
2023-03-08T21:48:22.913Z,87.89
2023-03-08T21:50:24.395Z,87.70
2023-03-08T21:52:25.919Z,87.81
2023-03-08T21:54:29.852Z,87.65
2023-03-08T21:56:31.416Z,87.81
2023-03-08T21:58:32.888Z,87.46
2023-03-08T22:00:34.834Z,87.66
2023-03-08T22:02:36.485Z,87.37
2023-03-08T22:04:39.026Z,87.48
2023-03-08T22:06:40.814Z,87.79
2023-03-08T22:08:42.311Z,87.31
2023-03-08T22:10:43.764Z,87.25
2023-03-08T22:12:47.284Z,87.32
2023-03-08T22:14:48.824Z,87.47
2023-03-08T22:16:50.322Z,87.11
2023-03-08T22:18:56.773Z,87.61
2023-03-08T22:20:59.072Z,87.06
2023-03-08T22:23:01.444Z,87.16
2023-03-08T22:25:03.621Z,87.14
2023-03-08T22:27:05.378Z,87.32
2023-03-08T22:29:06.872Z,86.94
2023-03-08T22:31:13.853Z,86.92
2023-03-08T22:33:15.829Z,87.35
2023-03-08T22:35:17.923Z,87.00
2023-03-08T22:37:19.497Z,87.08
2023-03-08T22:39:20.972Z,87.07
2023-03-08T22:41:24.902Z,86.84
2023-03-08T22:43:27.088Z,86.42
2023-03-08T22:45:29.657Z,87.11
2023-03-08T22:47:31.487Z,87.03
2023-03-08T22:49:34.328Z,86.60
2023-03-08T22:51:36.441Z,86.97
2023-03-08T22:53:38.592Z,87.19
2023-03-08T22:55:46.606Z,86.60
2023-03-08T22:57:48.277Z,86.90
2023-03-08T22:59:49.748Z,86.73
2023-03-08T23:01:52.463Z,86.92
2023-03-08T23:03:57.081Z,86.79
2023-03-08T23:05:58.608Z,86.50
2023-03-08T23:08:00.123Z,86.92
2023-03-08T23:10:01.557Z,86.97
2023-03-08T23:12:04.894Z,86.84
2023-03-08T23:14:08.002Z,86.81
2023-03-08T23:16:13.725Z,86.91
2023-03-08T23:18:15.245Z,86.94
2023-03-08T23:20:19.888Z,86.50
2023-03-08T23:22:21.442Z,86.94
2023-03-08T23:24:22.930Z,86.55
2023-03-08T23:26:27.159Z,86.82
2023-03-08T23:28:28.604Z,86.98
2023-03-08T23:30:30.093Z,86.85
2023-03-08T23:32:31.838Z,87.06
2023-03-08T23:34:33.623Z,86.63
2023-03-08T23:36:35.152Z,86.95
2023-03-08T23:38:36.604Z,86.97
2023-03-08T23:40:39.848Z,86.94
2023-03-08T23:42:41.698Z,86.83
2023-03-08T23:44:43.154Z,87.20
2023-03-08T23:46:46.299Z,86.99
2023-03-08T23:48:48.643Z,86.60
2023-03-08T23:50:50.112Z,86.95
2023-03-08T23:52:51.590Z,87.05
2023-03-08T23:54:53.576Z,87.25
2023-03-08T23:56:55.031Z,87.37
2023-03-08T23:58:58.392Z,87.11
